Eurasian Highway — 7JKY — position and weather

sailwx.info

Track history (hours):
 
Tides and Currents Weather Stations Pressure Air Temp Water Temp Dewpoint Dewpoint Depression Visibility Wind Speed Wind Dir Waves Ship Positions

Eurasian Highway

Last reported at 2015-Jan-31 18:33 UTC. Time now 2015-Feb-01 11:50 UTC.
Position S 33°06' E 152°17'.

Length 199 m; draft 8.4 m.

Type: Cargo ship. MMSI: 432839000.

Date/timePositionNaut miles runAvg speedWind from/ knotsBaromVisibWave heightAir tempDewpointWater temp
2015-Jan-31 18:33S 33°06' E 152°17'1515.4
2015-Jan-31 17:33S 32°54' E 152°27'1515.3
2015-Jan-31 16:33S 32°41' E 152°38'1914.7
2015-Jan-31 15:17S 32°25' E 152°48'26316.6
2015-Jan-30 23:30S 28°07' E 153°48'1617.5
2015-Jan-30 22:33S 27°51' E 153°47'1717.2
2015-Jan-30 21:33S 27°34' E 153°45'1716.6
2015-Jan-30 20:33S 27°17' E 153°44'1616.3
2015-Jan-30 19:33S 27°01' E 153°43'1515.0
2015-Jan-30 18:33S 26°51' E 153°30'1616.4
2015-Jan-30 17:33S 26°44' E 153°13'8 8.0
2015-Jan-30 16:33S 26°51' E 153°09'1616.5
2015-Jan-30 15:33S 27°05' E 153°18'1413.5
2015-Jan-30 14:33S 27°17' E 153°13'6 6.2
2015-Jan-30 13:33S 27°23' E 153°10'0 0.0
2015-Jan-30 12:33S 27°23' E 153°10'0 0.0
2015-Jan-30 11:33S 27°23' E 153°10'0 0.0
2015-Jan-30 10:33S 27°23' E 153°10'0 0.0
2015-Jan-30 09:33S 27°23' E 153°10'0 0.0
2015-Jan-30 08:33S 27°23' E 153°10'0 0.0
2015-Jan-30 07:33S 27°23' E 153°10'0 0.0
2015-Jan-30 06:33S 27°23' E 153°10'0 0.0
2015-Jan-30 05:33S 27°23' E 153°10'0 0.0
2015-Jan-30 04:33S 27°23' E 153°10'0 0.0
2015-Jan-30 03:33S 27°23' E 153°10'0 0.0
2015-Jan-30 02:33S 27°23' E 153°10'0 0.0
2015-Jan-30 01:33S 27°23' E 153°10'0 0.0
2015-Jan-30 00:33S 27°23' E 153°10'0 0.0
2015-Jan-29 23:33S 27°23' E 153°10'0 0.0
2015-Jan-29 22:33S 27°23' E 153°10'0 0.0
2015-Jan-29 21:33S 27°23' E 153°10'0 0.0
2015-Jan-29 20:33S 27°23' E 153°10'0 0.0
2015-Jan-29 19:33S 27°23' E 153°10'0 0.0
2015-Jan-29 18:33S 27°23' E 153°10'0 0.0
2015-Jan-29 17:33S 27°23' E 153°10'0 0.0
2015-Jan-29 16:33S 27°23' E 153°10'0 0.0
2015-Jan-29 15:33S 27°23' E 153°10'0 0.0
2015-Jan-29 14:33S 27°23' E 153°10'0 0.0
2015-Jan-29 13:33S 27°23' E 153°10'0 0.0
2015-Jan-29 12:33S 27°23' E 153°10'0 0.0
2015-Jan-29 11:33S 27°23' E 153°10'0 0.0
2015-Jan-29 10:33S 27°23' E 153°10'3 2.7
2015-Jan-29 09:33S 27°20' E 153°11'1515.3
2015-Jan-29 08:33S 27°08' E 153°21'1616.5
2015-Jan-29 07:33S 26°54' E 153°11'1211.7
2015-Jan-29 06:33S 26°42' E 153°12'1 1.3
2015-Jan-29 05:33S 26°43' E 153°13'0 0.1
2015-Jan-29 04:33S 26°42' E 153°14'0 0.0
2015-Jan-29 03:33S 26°42' E 153°14'0 0.0
2015-Jan-29 02:33S 26°42' E 153°14'0 0.0
2015-Jan-29 01:33S 26°42' E 153°14'0 0.0
2015-Jan-29 00:33S 26°42' E 153°14'0 0.1
2015-Jan-28 23:33S 26°42' E 153°14'0 0.0
2015-Jan-28 22:33S 26°42' E 153°14'3 3.0
2015-Jan-28 21:33S 26°39' E 153°14'1212.2
2015-Jan-28 20:32S 26°27' E 153°16'1514.9
2015-Jan-28 19:33S 26°12' E 153°18'2015.1
2015-Jan-28 18:13S 25°53' E 153°21'1015.3
2015-Jan-28 17:33S 25°43' E 153°23'  
Track history (hours):
 
Tides and Currents Weather Stations Pressure Air Temp Water Temp Dewpoint Dewpoint Depression Visibility Wind Speed Wind Dir Waves Ship Positions

Eurasian Highway

Last reported at 2015-Jan-31 18:33 UTC. Time now 2015-Feb-01 11:50 UTC.
Position S 33°06' E 152°17'.

Length 199 m; draft 8.4 m.

Type: Cargo ship. MMSI: 432839000.

Date/timePositionNaut miles runAvg speedWind from/ knotsBaromVisibWave heightAir tempDewpointWater temp
2015-Jan-31 18:33S 33°06' E 152°17'1515.4
2015-Jan-31 17:33S 32°54' E 152°27'1515.3
2015-Jan-31 16:33S 32°41' E 152°38'1914.7
2015-Jan-31 15:17S 32°25' E 152°48'26316.6
2015-Jan-30 23:30S 28°07' E 153°48'1617.5
2015-Jan-30 22:33S 27°51' E 153°47'1717.2
2015-Jan-30 21:33S 27°34' E 153°45'1716.6
2015-Jan-30 20:33S 27°17' E 153°44'1616.3
2015-Jan-30 19:33S 27°01' E 153°43'1515.0
2015-Jan-30 18:33S 26°51' E 153°30'1616.4
2015-Jan-30 17:33S 26°44' E 153°13'8 8.0
2015-Jan-30 16:33S 26°51' E 153°09'1616.5
2015-Jan-30 15:33S 27°05' E 153°18'1413.5
2015-Jan-30 14:33S 27°17' E 153°13'6 6.2
2015-Jan-30 13:33S 27°23' E 153°10'0 0.0
2015-Jan-30 12:33S 27°23' E 153°10'0 0.0
2015-Jan-30 11:33S 27°23' E 153°10'0 0.0
2015-Jan-30 10:33S 27°23' E 153°10'0 0.0
2015-Jan-30 09:33S 27°23' E 153°10'0 0.0
2015-Jan-30 08:33S 27°23' E 153°10'0 0.0
2015-Jan-30 07:33S 27°23' E 153°10'0 0.0
2015-Jan-30 06:33S 27°23' E 153°10'0 0.0
2015-Jan-30 05:33S 27°23' E 153°10'0 0.0
2015-Jan-30 04:33S 27°23' E 153°10'0 0.0
2015-Jan-30 03:33S 27°23' E 153°10'0 0.0
2015-Jan-30 02:33S 27°23' E 153°10'0 0.0
2015-Jan-30 01:33S 27°23' E 153°10'0 0.0
2015-Jan-30 00:33S 27°23' E 153°10'0 0.0
2015-Jan-29 23:33S 27°23' E 153°10'0 0.0
2015-Jan-29 22:33S 27°23' E 153°10'0 0.0
2015-Jan-29 21:33S 27°23' E 153°10'0 0.0
2015-Jan-29 20:33S 27°23' E 153°10'0 0.0
2015-Jan-29 19:33S 27°23' E 153°10'0 0.0
2015-Jan-29 18:33S 27°23' E 153°10'0 0.0
2015-Jan-29 17:33S 27°23' E 153°10'0 0.0
2015-Jan-29 16:33S 27°23' E 153°10'0 0.0
2015-Jan-29 15:33S 27°23' E 153°10'0 0.0
2015-Jan-29 14:33S 27°23' E 153°10'0 0.0
2015-Jan-29 13:33S 27°23' E 153°10'0 0.0
2015-Jan-29 12:33S 27°23' E 153°10'0 0.0
2015-Jan-29 11:33S 27°23' E 153°10'0 0.0
2015-Jan-29 10:33S 27°23' E 153°10'3 2.7
2015-Jan-29 09:33S 27°20' E 153°11'1515.3
2015-Jan-29 08:33S 27°08' E 153°21'1616.5
2015-Jan-29 07:33S 26°54' E 153°11'1211.7
2015-Jan-29 06:33S 26°42' E 153°12'1 1.3
2015-Jan-29 05:33S 26°43' E 153°13'0 0.1
2015-Jan-29 04:33S 26°42' E 153°14'0 0.0
2015-Jan-29 03:33S 26°42' E 153°14'0 0.0
2015-Jan-29 02:33S 26°42' E 153°14'0 0.0
2015-Jan-29 01:33S 26°42' E 153°14'0 0.0
2015-Jan-29 00:33S 26°42' E 153°14'0 0.1
2015-Jan-28 23:33S 26°42' E 153°14'0 0.0
2015-Jan-28 22:33S 26°42' E 153°14'3 3.0
2015-Jan-28 21:33S 26°39' E 153°14'1212.2
2015-Jan-28 20:32S 26°27' E 153°16'1514.9
2015-Jan-28 19:33S 26°12' E 153°18'2015.1
2015-Jan-28 18:13S 25°53' E 153°21'1015.3
2015-Jan-28 17:33S 25°43' E 153°23'  

Dump ship's entire track history